sensor_id;sensor_type;location;lat;lon;timestamp;temperature;humidity
5200;DHT22;2619;47.868;11.892;2022-10-16T00:01:16;11.10;99.90
5200;DHT22;2619;47.868;11.892;2022-10-16T00:03:43;11.00;99.90
5200;DHT22;2619;47.868;11.892;2022-10-16T00:06:10;11.00;99.90
5200;DHT22;2619;47.868;11.892;2022-10-16T00:08:37;10.90;99.90
5200;DHT22;2619;47.868;11.892;2022-10-16T00:13:31;10.80;99.90
5200;DHT22;2619;47.868;11.892;2022-10-16T00:15:58;10.90;99.90
5200;DHT22;2619;47.868;11.892;2022-10-16T00:18:25;10.80;99.90
5200;DHT22;2619;47.868;11.892;2022-10-16T00:20:51;10.80;99.90
5200;DHT22;2619;47.868;11.892;2022-10-16T00:23:17;10.80;99.90
5200;DHT22;2619;47.868;11.892;2022-10-16T00:25:42;10.70;99.90
5200;DHT22;2619;47.868;11.892;2022-10-16T00:28:08;10.70;99.90
5200;DHT22;2619;47.868;11.892;2022-10-16T00:30:37;10.70;99.90
5200;DHT22;2619;47.868;11.892;2022-10-16T00:33:03;10.70;99.90
5200;DHT22;2619;47.868;11.892;2022-10-16T00:35:28;10.60;99.90
5200;DHT22;2619;47.868;11.892;2022-10-16T00:37:54;10.50;99.90
5200;DHT22;2619;47.868;11.892;2022-10-16T00:40:20;10.40;99.90
5200;DHT22;2619;47.868;11.892;2022-10-16T00:42:45;10.30;99.90
5200;DHT22;2619;47.868;11.892;2022-10-16T00:45:11;10.40;99.90
5200;DHT22;2619;47.868;11.892;2022-10-16T00:47:40;10.30;99.90
5200;DHT22;2619;47.868;11.892;2022-10-16T00:50:24;10.30;99.90
5200;DHT22;2619;47.868;11.892;2022-10-16T00:52:52;10.20;99.90
5200;DHT22;2619;47.868;11.892;2022-10-16T00:55:18;10.10;99.90
5200;DHT22;2619;47.868;11.892;2022-10-16T00:57:45;10.20;99.90
5200;DHT22;2619;47.868;11.892;2022-10-16T01:00:13;10.20;99.90
5200;DHT22;2619;47.868;11.892;2022-10-16T01:02:39;10.20;99.90
5200;DHT22;2619;47.868;11.892;2022-10-16T01:05:05;10.30;99.90
5200;DHT22;2619;47.868;11.892;2022-10-16T01:10:40;10.10;99.90
5200;DHT22;2619;47.868;11.892;2022-10-16T01:13:18;10.20;99.90
5200;DHT22;2619;47.868;11.892;2022-10-16T01:15:56;10.20;99.90
5200;DHT22;2619;47.868;11.892;2022-10-16T01:18:43;10.20;99.90
5200;DHT22;2619;47.868;11.892;2022-10-16T01:21:19;10.10;99.90
5200;DHT22;2619;47.868;11.892;2022-10-16T01:29:55;10.20;99.90
5200;DHT22;2619;47.868;11.892;2022-10-16T01:32:40;10.10;99.90
5200;DHT22;2619;47.868;11.892;2022-10-16T01:35:14;10.10;99.90
5200;DHT22;2619;47.868;11.892;2022-10-16T01:40:24;10.20;99.90
5200;DHT22;2619;47.868;11.892;2022-10-16T01:43:02;10.30;99.90
5200;DHT22;2619;47.868;11.892;2022-10-16T01:45:30;10.40;99.90
5200;DHT22;2619;47.868;11.892;2022-10-16T01:47:58;10.40;99.90
5200;DHT22;2619;47.868;11.892;2022-10-16T01:50:26;10.40;99.90
5200;DHT22;2619;47.868;11.892;2022-10-16T01:52:55;10.40;99.90
5200;DHT22;2619;47.868;11.892;2022-10-16T01:55:26;10.40;99.90
5200;DHT22;2619;47.868;11.892;2022-10-16T01:57:53;10.40;99.90
5200;DHT22;2619;47.868;11.892;2022-10-16T02:00:21;10.40;99.90
5200;DHT22;2619;47.868;11.892;2022-10-16T02:02:49;10.40;99.90
5200;DHT22;2619;47.868;11.892;2022-10-16T02:05:31;10.20;99.90
5200;DHT22;2619;47.868;11.892;2022-10-16T02:07:57;10.10;99.90
5200;DHT22;2619;47.868;11.892;2022-10-16T02:10:24;10.10;99.90
5200;DHT22;2619;47.868;11.892;2022-10-16T02:15:31;10.00;99.90
5200;DHT22;2619;47.868;11.892;2022-10-16T02:17:57;10.10;99.90
5200;DHT22;2619;47.868;11.892;2022-10-16T02:20:27;10.10;99.90
5200;DHT22;2619;47.868;11.892;2022-10-16T02:22:54;10.00;99.90
5200;DHT22;2619;47.868;11.892;2022-10-16T02:25:31;10.00;99.90
5200;DHT22;2619;47.868;11.892;2022-10-16T02:30:45;9.90;99.90
5200;DHT22;2619;47.868;11.892;2022-10-16T02:33:14;9.80;99.90
5200;DHT22;2619;47.868;11.892;2022-10-16T02:35:42;9.70;99.90
5200;DHT22;2619;47.868;11.892;2022-10-16T02:38:09;9.70;99.90
5200;DHT22;2619;47.868;11.892;2022-10-16T02:40:36;9.70;99.90
5200;DHT22;2619;47.868;11.892;2022-10-16T02:43:04;9.80;99.90
5200;DHT22;2619;47.868;11.892;2022-10-16T02:45:30;9.70;99.90
5200;DHT22;2619;47.868;11.892;2022-10-16T02:47:56;9.70;99.90
5200;DHT22;2619;47.868;11.892;2022-10-16T02:50:21;9.70;99.90
5200;DHT22;2619;47.868;11.892;2022-10-16T02:52:47;9.70;99.90
5200;DHT22;2619;47.868;11.892;2022-10-16T02:55:13;9.70;99.90
5200;DHT22;2619;47.868;11.892;2022-10-16T02:57:39;9.60;99.90
5200;DHT22;2619;47.868;11.892;2022-10-16T03:00:09;9.60;99.90
5200;DHT22;2619;47.868;11.892;2022-10-16T03:02:35;9.60;99.90
5200;DHT22;2619;47.868;11.892;2022-10-16T03:05:01;9.60;99.90
5200;DHT22;2619;47.868;11.892;2022-10-16T03:07:26;9.60;99.90
5200;DHT22;2619;47.868;11.892;2022-10-16T03:09:52;9.60;99.90
5200;DHT22;2619;47.868;11.892;2022-10-16T03:12:17;9.50;99.90
5200;DHT22;2619;47.868;11.892;2022-10-16T03:14:43;9.40;99.90
5200;DHT22;2619;47.868;11.892;2022-10-16T03:17:08;9.40;99.90
5200;DHT22;2619;47.868;11.892;2022-10-16T03:19:34;9.40;99.90
5200;DHT22;2619;47.868;11.892;2022-10-16T03:22:01;9.40;99.90
5200;DHT22;2619;47.868;11.892;2022-10-16T03:24:27;9.40;99.90
5200;DHT22;2619;47.868;11.892;2022-10-16T03:26:52;9.50;99.90
5200;DHT22;2619;47.868;11.892;2022-10-16T03:29:18;9.50;99.90
5200;DHT22;2619;47.868;11.892;2022-10-16T03:31:43;9.50;99.90
5200;DHT22;2619;47.868;11.892;2022-10-16T03:34:09;9.60;99.90
5200;DHT22;2619;47.868;11.892;2022-10-16T03:36:34;9.50;99.90
5200;DHT22;2619;47.868;11.892;2022-10-16T03:39:00;9.40;99.90
5200;DHT22;2619;47.868;11.892;2022-10-16T03:41:26;9.50;99.90
5200;DHT22;2619;47.868;11.892;2022-10-16T03:43:51;9.60;99.90
5200;DHT22;2619;47.868;11.892;2022-10-16T03:46:17;9.60;99.90
5200;DHT22;2619;47.868;11.892;2022-10-16T03:48:42;9.50;99.90
5200;DHT22;2619;47.868;11.892;2022-10-16T03:51:08;9.60;99.90
5200;DHT22;2619;47.868;11.892;2022-10-16T03:53:33;9.60;99.90
5200;DHT22;2619;47.868;11.892;2022-10-16T03:55:59;9.70;99.90
5200;DHT22;2619;47.868;11.892;2022-10-16T03:58:25;9.70;99.90
5200;DHT22;2619;47.868;11.892;2022-10-16T04:00:51;9.70;99.90
5200;DHT22;2619;47.868;11.892;2022-10-16T04:03:16;9.70;99.90
5200;DHT22;2619;47.868;11.892;2022-10-16T04:05:44;9.70;99.90
5200;DHT22;2619;47.868;11.892;2022-10-16T04:08:09;9.60;99.90
5200;DHT22;2619;47.868;11.892;2022-10-16T04:10:35;9.60;99.90
5200;DHT22;2619;47.868;11.892;2022-10-16T04:13:01;9.60;99.90
5200;DHT22;2619;47.868;11.892;2022-10-16T04:15:26;9.60;99.90
5200;DHT22;2619;47.868;11.892;2022-10-16T04:17:52;9.60;99.90
5200;DHT22;2619;47.868;11.892;2022-10-16T04:20:18;9.50;99.90
5200;DHT22;2619;47.868;11.892;2022-10-16T04:22:44;9.50;99.90
5200;DHT22;2619;47.868;11.892;2022-10-16T04:25:09;9.30;99.90
5200;DHT22;2619;47.868;11.892;2022-10-16T04:27:35;9.30;99.90
5200;DHT22;2619;47.868;11.892;2022-10-16T04:30:00;9.20;99.90
5200;DHT22;2619;47.868;11.892;2022-10-16T04:32:26;9.30;99.90
5200;DHT22;2619;47.868;11.892;2022-10-16T04:34:52;9.30;99.90
5200;DHT22;2619;47.868;11.892;2022-10-16T04:37:18;9.30;99.90
5200;DHT22;2619;47.868;11.892;2022-10-16T04:39:44;9.30;99.90
5200;DHT22;2619;47.868;11.892;2022-10-16T04:42:10;9.40;99.90
5200;DHT22;2619;47.868;11.892;2022-10-16T04:44:36;9.40;99.90
5200;DHT22;2619;47.868;11.892;2022-10-16T04:47:02;9.40;99.90
5200;DHT22;2619;47.868;11.892;2022-10-16T04:49:27;9.50;99.90
5200;DHT22;2619;47.868;11.892;2022-10-16T04:51:53;9.50;99.90
5200;DHT22;2619;47.868;11.892;2022-10-16T04:54:19;9.50;99.90
5200;DHT22;2619;47.868;11.892;2022-10-16T04:56:44;9.50;99.90
5200;DHT22;2619;47.868;11.892;2022-10-16T04:59:14;9.50;99.90
5200;DHT22;2619;47.868;11.892;2022-10-16T05:01:40;9.50;99.90
5200;DHT22;2619;47.868;11.892;2022-10-16T05:04:05;9.60;99.90
5200;DHT22;2619;47.868;11.892;2022-10-16T05:06:31;9.70;99.90
5200;DHT22;2619;47.868;11.892;2022-10-16T05:08:57;9.70;99.90
5200;DHT22;2619;47.868;11.892;2022-10-16T05:11:22;9.60;99.90
5200;DHT22;2619;47.868;11.892;2022-10-16T05:13:48;9.60;99.90
5200;DHT22;2619;47.868;11.892;2022-10-16T05:16:13;9.60;99.90
5200;DHT22;2619;47.868;11.892;2022-10-16T05:18:39;9.60;99.90
5200;DHT22;2619;47.868;11.892;2022-10-16T05:21:04;9.60;99.90
5200;DHT22;2619;47.868;11.892;2022-10-16T05:23:31;9.60;99.90
5200;DHT22;2619;47.868;11.892;2022-10-16T05:25:57;9.60;99.90
5200;DHT22;2619;47.868;11.892;2022-10-16T05:28:28;9.60;99.90
5200;DHT22;2619;47.868;11.892;2022-10-16T05:30:54;9.70;99.90
5200;DHT22;2619;47.868;11.892;2022-10-16T05:33:21;9.70;99.90
5200;DHT22;2619;47.868;11.892;2022-10-16T05:35:47;9.70;99.90
5200;DHT22;2619;47.868;11.892;2022-10-16T05:38:12;9.80;99.90
5200;DHT22;2619;47.868;11.892;2022-10-16T05:40:38;9.80;99.90
5200;DHT22;2619;47.868;11.892;2022-10-16T05:43:04;10.00;99.90
5200;DHT22;2619;47.868;11.892;2022-10-16T05:45:29;10.00;99.90
5200;DHT22;2619;47.868;11.892;2022-10-16T05:47:55;10.10;99.90
5200;DHT22;2619;47.868;11.892;2022-10-16T05:50:20;10.20;99.90
5200;DHT22;2619;47.868;11.892;2022-10-16T05:52:46;10.50;99.90
5200;DHT22;2619;47.868;11.892;2022-10-16T05:55:12;10.90;99.90
5200;DHT22;2619;47.868;11.892;2022-10-16T05:57:37;11.00;99.90
5200;DHT22;2619;47.868;11.892;2022-10-16T06:00:04;11.00;99.90
5200;DHT22;2619;47.868;11.892;2022-10-16T06:02:30;11.00;99.90
5200;DHT22;2619;47.868;11.892;2022-10-16T06:04:56;11.00;99.90
5200;DHT22;2619;47.868;11.892;2022-10-16T06:07:22;11.00;99.90
5200;DHT22;2619;47.868;11.892;2022-10-16T06:09:48;11.10;99.90
5200;DHT22;2619;47.868;11.892;2022-10-16T06:12:15;11.20;99.90
5200;DHT22;2619;47.868;11.892;2022-10-16T06:14:41;11.20;99.90
5200;DHT22;2619;47.868;11.892;2022-10-16T06:17:06;11.20;99.90
5200;DHT22;2619;47.868;11.892;2022-10-16T06:19:32;11.20;99.90
5200;DHT22;2619;47.868;11.892;2022-10-16T06:21:57;11.20;99.90
5200;DHT22;2619;47.868;11.892;2022-10-16T06:24:24;11.20;99.90
5200;DHT22;2619;47.868;11.892;2022-10-16T06:26:49;11.30;99.90
5200;DHT22;2619;47.868;11.892;2022-10-16T06:29:15;11.30;99.90
5200;DHT22;2619;47.868;11.892;2022-10-16T06:31:41;11.40;99.90
5200;DHT22;2619;47.868;11.892;2022-10-16T06:34:09;11.50;99.90
5200;DHT22;2619;47.868;11.892;2022-10-16T06:36:36;11.60;99.90
5200;DHT22;2619;47.868;11.892;2022-10-16T06:39:02;11.80;99.90
5200;DHT22;2619;47.868;11.892;2022-10-16T06:41:28;12.00;99.90
5200;DHT22;2619;47.868;11.892;2022-10-16T06:43:54;12.10;99.90
5200;DHT22;2619;47.868;11.892;2022-10-16T06:46:22;12.20;99.90
5200;DHT22;2619;47.868;11.892;2022-10-16T06:48:48;12.40;99.90
5200;DHT22;2619;47.868;11.892;2022-10-16T06:51:19;12.50;99.90
5200;DHT22;2619;47.868;11.892;2022-10-16T06:53:47;12.50;99.90
5200;DHT22;2619;47.868;11.892;2022-10-16T06:56:20;12.60;99.90
5200;DHT22;2619;47.868;11.892;2022-10-16T06:58:47;12.80;99.90
5200;DHT22;2619;47.868;11.892;2022-10-16T07:01:15;13.00;99.90
5200;DHT22;2619;47.868;11.892;2022-10-16T07:03:42;13.00;99.90
5200;DHT22;2619;47.868;11.892;2022-10-16T07:06:10;13.20;99.90
5200;DHT22;2619;47.868;11.892;2022-10-16T07:08:38;13.40;99.90
5200;DHT22;2619;47.868;11.892;2022-10-16T07:11:10;13.70;99.90
5200;DHT22;2619;47.868;11.892;2022-10-16T07:13:37;13.80;99.90
5200;DHT22;2619;47.868;11.892;2022-10-16T07:16:11;13.90;99.90
5200;DHT22;2619;47.868;11.892;2022-10-16T07:18:37;13.90;99.90
5200;DHT22;2619;47.868;11.892;2022-10-16T07:21:10;13.90;99.90
5200;DHT22;2619;47.868;11.892;2022-10-16T07:23:37;14.00;99.90
5200;DHT22;2619;47.868;11.892;2022-10-16T07:26:04;14.00;99.90
5200;DHT22;2619;47.868;11.892;2022-10-16T07:28:30;14.20;99.90
5200;DHT22;2619;47.868;11.892;2022-10-16T07:31:03;14.20;99.90
5200;DHT22;2619;47.868;11.892;2022-10-16T07:33:29;14.20;99.90
5200;DHT22;2619;47.868;11.892;2022-10-16T07:35:55;14.30;99.90
5200;DHT22;2619;47.868;11.892;2022-10-16T07:38:21;14.40;99.90
5200;DHT22;2619;47.868;11.892;2022-10-16T07:40:47;14.50;99.90
5200;DHT22;2619;47.868;11.892;2022-10-16T07:43:14;14.60;99.90
5200;DHT22;2619;47.868;11.892;2022-10-16T07:45:49;14.70;99.90
5200;DHT22;2619;47.868;11.892;2022-10-16T07:48:16;14.80;99.90
5200;DHT22;2619;47.868;11.892;2022-10-16T07:50:42;14.90;99.90
5200;DHT22;2619;47.868;11.892;2022-10-16T07:53:08;15.00;99.90
5200;DHT22;2619;47.868;11.892;2022-10-16T07:55:33;15.00;99.90
5200;DHT22;2619;47.868;11.892;2022-10-16T07:57:59;15.00;99.90
5200;DHT22;2619;47.868;11.892;2022-10-16T08:00:24;14.80;99.90
5200;DHT22;2619;47.868;11.892;2022-10-16T08:02:50;14.70;99.90
5200;DHT22;2619;47.868;11.892;2022-10-16T08:05:15;14.80;99.90
5200;DHT22;2619;47.868;11.892;2022-10-16T08:07:41;15.00;99.90
5200;DHT22;2619;47.868;11.892;2022-10-16T08:10:15;15.20;99.90
5200;DHT22;2619;47.868;11.892;2022-10-16T08:12:41;15.20;99.90
5200;DHT22;2619;47.868;11.892;2022-10-16T08:15:07;15.40;99.90
5200;DHT22;2619;47.868;11.892;2022-10-16T08:17:33;15.60;99.90
5200;DHT22;2619;47.868;11.892;2022-10-16T08:19:59;15.80;99.90
5200;DHT22;2619;47.868;11.892;2022-10-16T08:22:24;15.80;99.90
5200;DHT22;2619;47.868;11.892;2022-10-16T08:24:50;15.80;99.90
5200;DHT22;2619;47.868;11.892;2022-10-16T08:27:15;16.00;99.90
5200;DHT22;2619;47.868;11.892;2022-10-16T08:29:41;16.10;99.90
5200;DHT22;2619;47.868;11.892;2022-10-16T08:32:06;16.20;99.90
5200;DHT22;2619;47.868;11.892;2022-10-16T08:34:32;16.20;99.90
5200;DHT22;2619;47.868;11.892;2022-10-16T08:36:57;16.30;99.90
5200;DHT22;2619;47.868;11.892;2022-10-16T08:39:23;16.50;99.90
5200;DHT22;2619;47.868;11.892;2022-10-16T08:47:24;17.00;99.90
5200;DHT22;2619;47.868;11.892;2022-10-16T08:50:00;17.10;99.90
5200;DHT22;2619;47.868;11.892;2022-10-16T08:52:32;17.10;99.90
5200;DHT22;2619;47.868;11.892;2022-10-16T08:54:59;17.20;99.90
5200;DHT22;2619;47.868;11.892;2022-10-16T08:57:26;17.30;99.90
5200;DHT22;2619;47.868;11.892;2022-10-16T08:59:53;17.30;99.90
5200;DHT22;2619;47.868;11.892;2022-10-16T09:02:37;17.40;99.90
5200;DHT22;2619;47.868;11.892;2022-10-16T09:11:32;17.60;99.90
5200;DHT22;2619;47.868;11.892;2022-10-16T09:13:59;17.70;99.90
5200;DHT22;2619;47.868;11.892;2022-10-16T09:16:43;17.80;99.90
5200;DHT22;2619;47.868;11.892;2022-10-16T09:19:36;18.00;99.90
5200;DHT22;2619;47.868;11.892;2022-10-16T09:22:12;18.10;99.90
5200;DHT22;2619;47.868;11.892;2022-10-16T09:24:39;18.30;99.90
5200;DHT22;2619;47.868;11.892;2022-10-16T09:27:04;18.30;99.90
5200;DHT22;2619;47.868;11.892;2022-10-16T09:29:30;18.20;99.90
5200;DHT22;2619;47.868;11.892;2022-10-16T09:31:57;18.20;99.90
5200;DHT22;2619;47.868;11.892;2022-10-16T09:34:35;18.30;99.90
5200;DHT22;2619;47.868;11.892;2022-10-16T09:37:05;18.40;99.90
5200;DHT22;2619;47.868;11.892;2022-10-16T09:39:48;18.50;99.90
5200;DHT22;2619;47.868;11.892;2022-10-16T09:42:20;18.60;99.90
5200;DHT22;2619;47.868;11.892;2022-10-16T09:44:53;18.70;99.90
5200;DHT22;2619;47.868;11.892;2022-10-16T09:47:22;18.80;99.90
5200;DHT22;2619;47.868;11.892;2022-10-16T09:49:56;18.80;99.90
5200;DHT22;2619;47.868;11.892;2022-10-16T09:52:23;18.80;99.90
5200;DHT22;2619;47.868;11.892;2022-10-16T09:54:57;19.00;99.90
5200;DHT22;2619;47.868;11.892;2022-10-16T09:57:24;19.10;99.90
5200;DHT22;2619;47.868;11.892;2022-10-16T09:59:54;19.10;99.90
5200;DHT22;2619;47.868;11.892;2022-10-16T10:02:30;19.10;99.90
5200;DHT22;2619;47.868;11.892;2022-10-16T10:04:56;19.20;99.90
5200;DHT22;2619;47.868;11.892;2022-10-16T10:07:32;19.20;99.90
5200;DHT22;2619;47.868;11.892;2022-10-16T10:09:59;19.40;99.90
5200;DHT22;2619;47.868;11.892;2022-10-16T10:12:27;19.40;99.90
5200;DHT22;2619;47.868;11.892;2022-10-16T10:14:58;19.70;99.90
5200;DHT22;2619;47.868;11.892;2022-10-16T10:17:29;19.80;99.90
5200;DHT22;2619;47.868;11.892;2022-10-16T10:19:58;19.90;99.90
5200;DHT22;2619;47.868;11.892;2022-10-16T10:22:43;20.00;99.90
5200;DHT22;2619;47.868;11.892;2022-10-16T10:33:07;20.20;99.90
5200;DHT22;2619;47.868;11.892;2022-10-16T10:35:43;20.20;99.90
5200;DHT22;2619;47.868;11.892;2022-10-16T10:46:56;20.60;99.90
5200;DHT22;2619;47.868;11.892;2022-10-16T10:54:36;20.70;99.90
5200;DHT22;2619;47.868;11.892;2022-10-16T10:57:10;20.80;99.90
5200;DHT22;2619;47.868;11.892;2022-10-16T11:08:48;21.10;99.90
5200;DHT22;2619;47.868;11.892;2022-10-16T11:11:04;21.10;99.90
5200;DHT22;2619;47.868;11.892;2022-10-16T11:13:54;21.20;99.90
5200;DHT22;2619;47.868;11.892;2022-10-16T11:16:34;21.30;99.90
5200;DHT22;2619;47.868;11.892;2022-10-16T11:22:07;21.60;99.90
5200;DHT22;2619;47.868;11.892;2022-10-16T11:24:55;21.60;99.90
5200;DHT22;2619;47.868;11.892;2022-10-16T11:27:45;21.60;99.90
5200;DHT22;2619;47.868;11.892;2022-10-16T11:30:27;21.70;99.90
5200;DHT22;2619;47.868;11.892;2022-10-16T11:35:59;21.80;99.90
5200;DHT22;2619;47.868;11.892;2022-10-16T11:38:39;21.90;99.90
5200;DHT22;2619;47.868;11.892;2022-10-16T11:41:28;21.90;99.90
5200;DHT22;2619;47.868;11.892;2022-10-16T11:47:06;22.00;99.90
5200;DHT22;2619;47.868;11.892;2022-10-16T11:49:36;22.00;99.90
5200;DHT22;2619;47.868;11.892;2022-10-16T11:52:42;22.10;99.90
5200;DHT22;2619;47.868;11.892;2022-10-16T11:55:28;22.20;99.90
5200;DHT22;2619;47.868;11.892;2022-10-16T12:00:54;22.30;99.90
5200;DHT22;2619;47.868;11.892;2022-10-16T12:06:25;22.40;99.90
5200;DHT22;2619;47.868;11.892;2022-10-16T12:08:53;22.50;99.90
5200;DHT22;2619;47.868;11.892;2022-10-16T12:16:39;22.60;99.90
5200;DHT22;2619;47.868;11.892;2022-10-16T12:19:16;22.60;99.90
5200;DHT22;2619;47.868;11.892;2022-10-16T12:21:43;22.50;99.90
5200;DHT22;2619;47.868;11.892;2022-10-16T12:26:48;22.40;99.90
5200;DHT22;2619;47.868;11.892;2022-10-16T12:32:02;22.50;99.90
5200;DHT22;2619;47.868;11.892;2022-10-16T12:34:32;22.40;99.90
5200;DHT22;2619;47.868;11.892;2022-10-16T12:37:14;22.30;99.90
5200;DHT22;2619;47.868;11.892;2022-10-16T12:39:41;22.30;99.90
5200;DHT22;2619;47.868;11.892;2022-10-16T12:44:55;22.20;99.90
5200;DHT22;2619;47.868;11.892;2022-10-16T12:50:25;22.10;99.90
5200;DHT22;2619;47.868;11.892;2022-10-16T12:52:51;21.90;99.90
5200;DHT22;2619;47.868;11.892;2022-10-16T12:55:19;21.90;99.90
5200;DHT22;2619;47.868;11.892;2022-10-16T12:58:09;21.90;99.90
5200;DHT22;2619;47.868;11.892;2022-10-16T13:00:44;21.70;99.90
5200;DHT22;2619;47.868;11.892;2022-10-16T13:08:41;21.50;99.90
5200;DHT22;2619;47.868;11.892;2022-10-16T13:11:24;21.50;99.90
5200;DHT22;2619;47.868;11.892;2022-10-16T13:14:09;21.50;99.90
5200;DHT22;2619;47.868;11.892;2022-10-16T13:19:51;21.30;99.90
5200;DHT22;2619;47.868;11.892;2022-10-16T13:22:24;21.30;99.90
5200;DHT22;2619;47.868;11.892;2022-10-16T13:28:06;21.40;99.90
5200;DHT22;2619;47.868;11.892;2022-10-16T13:30:43;21.40;99.90
5200;DHT22;2619;47.868;11.892;2022-10-16T13:35:53;21.20;99.90
5200;DHT22;2619;47.868;11.892;2022-10-16T13:38:21;21.10;99.90
5200;DHT22;2619;47.868;11.892;2022-10-16T13:43:35;20.80;99.90
5200;DHT22;2619;47.868;11.892;2022-10-16T13:46:05;20.70;99.90
5200;DHT22;2619;47.868;11.892;2022-10-16T13:48:32;20.60;99.90
5200;DHT22;2619;47.868;11.892;2022-10-16T13:51:16;20.70;99.90
5200;DHT22;2619;47.868;11.892;2022-10-16T13:53:42;20.70;99.90
5200;DHT22;2619;47.868;11.892;2022-10-16T13:56:17;20.70;99.90
5200;DHT22;2619;47.868;11.892;2022-10-16T13:58:44;20.60;99.90
5200;DHT22;2619;47.868;11.892;2022-10-16T14:01:30;20.60;99.90
5200;DHT22;2619;47.868;11.892;2022-10-16T14:04:15;20.50;99.90
5200;DHT22;2619;47.868;11.892;2022-10-16T14:06:44;20.50;99.90
5200;DHT22;2619;47.868;11.892;2022-10-16T14:09:16;20.40;99.90
5200;DHT22;2619;47.868;11.892;2022-10-16T14:11:50;20.40;99.90
5200;DHT22;2619;47.868;11.892;2022-10-16T14:14:18;20.40;99.90
5200;DHT22;2619;47.868;11.892;2022-10-16T14:16:44;20.40;99.90
5200;DHT22;2619;47.868;11.892;2022-10-16T14:19:25;20.40;99.90
5200;DHT22;2619;47.868;11.892;2022-10-16T14:21:52;20.40;99.90
5200;DHT22;2619;47.868;11.892;2022-10-16T14:26:51;20.20;99.90
5200;DHT22;2619;47.868;11.892;2022-10-16T14:29:20;20.20;99.90
5200;DHT22;2619;47.868;11.892;2022-10-16T14:32:03;20.10;99.90
5200;DHT22;2619;47.868;11.892;2022-10-16T14:34:39;20.10;99.90
5200;DHT22;2619;47.868;11.892;2022-10-16T14:37:09;20.00;99.90
5200;DHT22;2619;47.868;11.892;2022-10-16T14:39:39;20.00;99.90
5200;DHT22;2619;47.868;11.892;2022-10-16T14:42:14;20.00;99.90
5200;DHT22;2619;47.868;11.892;2022-10-16T14:44:40;19.90;99.90
5200;DHT22;2619;47.868;11.892;2022-10-16T14:47:13;19.90;99.90
5200;DHT22;2619;47.868;11.892;2022-10-16T14:49:41;19.80;99.90
5200;DHT22;2619;47.868;11.892;2022-10-16T14:52:10;19.70;99.90
5200;DHT22;2619;47.868;11.892;2022-10-16T14:54:36;19.60;99.90
5200;DHT22;2619;47.868;11.892;2022-10-16T14:57:01;19.50;99.90
5200;DHT22;2619;47.868;11.892;2022-10-16T14:59:53;19.50;99.90
5200;DHT22;2619;47.868;11.892;2022-10-16T15:02:32;19.40;99.90
5200;DHT22;2619;47.868;11.892;2022-10-16T15:05:10;19.30;99.90
5200;DHT22;2619;47.868;11.892;2022-10-16T15:07:36;19.10;99.90
5200;DHT22;2619;47.868;11.892;2022-10-16T15:10:02;19.00;99.90
5200;DHT22;2619;47.868;11.892;2022-10-16T15:12:27;18.90;99.90
5200;DHT22;2619;47.868;11.892;2022-10-16T15:14:53;18.70;99.90
5200;DHT22;2619;47.868;11.892;2022-10-16T15:17:18;18.70;99.90
5200;DHT22;2619;47.868;11.892;2022-10-16T15:19:44;18.60;99.90
5200;DHT22;2619;47.868;11.892;2022-10-16T15:22:11;18.40;99.90
5200;DHT22;2619;47.868;11.892;2022-10-16T15:24:37;18.30;99.90
5200;DHT22;2619;47.868;11.892;2022-10-16T15:27:03;18.20;99.90
5200;DHT22;2619;47.868;11.892;2022-10-16T15:29:28;18.10;99.90
5200;DHT22;2619;47.868;11.892;2022-10-16T15:31:54;18.00;99.90
5200;DHT22;2619;47.868;11.892;2022-10-16T15:34:19;18.00;99.90
5200;DHT22;2619;47.868;11.892;2022-10-16T15:36:45;17.80;99.90
5200;DHT22;2619;47.868;11.892;2022-10-16T15:39:16;17.60;99.90
5200;DHT22;2619;47.868;11.892;2022-10-16T15:41:44;17.60;99.90
5200;DHT22;2619;47.868;11.892;2022-10-16T15:44:09;17.60;99.90
5200;DHT22;2619;47.868;11.892;2022-10-16T15:46:35;17.40;99.90
5200;DHT22;2619;47.868;11.892;2022-10-16T15:49:02;17.30;99.90
5200;DHT22;2619;47.868;11.892;2022-10-16T15:51:28;17.20;99.90
5200;DHT22;2619;47.868;11.892;2022-10-16T15:53:59;17.10;99.90
5200;DHT22;2619;47.868;11.892;2022-10-16T15:56:27;17.00;99.90
5200;DHT22;2619;47.868;11.892;2022-10-16T15:58:54;17.00;99.90
5200;DHT22;2619;47.868;11.892;2022-10-16T16:01:20;16.80;99.90
5200;DHT22;2619;47.868;11.892;2022-10-16T16:03:45;16.60;99.90
5200;DHT22;2619;47.868;11.892;2022-10-16T16:06:12;16.40;99.90
5200;DHT22;2619;47.868;11.892;2022-10-16T16:08:39;16.40;99.90
5200;DHT22;2619;47.868;11.892;2022-10-16T16:11:08;16.30;99.90
5200;DHT22;2619;47.868;11.892;2022-10-16T16:13:34;16.20;99.90
5200;DHT22;2619;47.868;11.892;2022-10-16T16:16:00;16.20;99.90
5200;DHT22;2619;47.868;11.892;2022-10-16T16:18:26;16.10;99.90
5200;DHT22;2619;47.868;11.892;2022-10-16T16:20:52;16.00;99.90
5200;DHT22;2619;47.868;11.892;2022-10-16T16:23:17;15.90;99.90
5200;DHT22;2619;47.868;11.892;2022-10-16T16:25:44;15.90;99.90
5200;DHT22;2619;47.868;11.892;2022-10-16T16:28:10;15.70;99.90
5200;DHT22;2619;47.868;11.892;2022-10-16T16:30:40;15.70;99.90
5200;DHT22;2619;47.868;11.892;2022-10-16T16:33:06;15.50;99.90
5200;DHT22;2619;47.868;11.892;2022-10-16T16:35:31;15.40;99.90
5200;DHT22;2619;47.868;11.892;2022-10-16T16:37:57;15.30;99.90
5200;DHT22;2619;47.868;11.892;2022-10-16T16:40:22;15.30;99.90
5200;DHT22;2619;47.868;11.892;2022-10-16T16:42:49;15.20;99.90
5200;DHT22;2619;47.868;11.892;2022-10-16T16:45:14;15.20;99.90
5200;DHT22;2619;47.868;11.892;2022-10-16T16:47:40;15.10;99.90
5200;DHT22;2619;47.868;11.892;2022-10-16T16:50:06;15.00;99.90
5200;DHT22;2619;47.868;11.892;2022-10-16T16:52:33;14.80;99.90
5200;DHT22;2619;47.868;11.892;2022-10-16T16:54:58;14.80;99.90
5200;DHT22;2619;47.868;11.892;2022-10-16T16:57:24;14.70;99.90
5200;DHT22;2619;47.868;11.892;2022-10-16T16:59:52;14.70;99.90
5200;DHT22;2619;47.868;11.892;2022-10-16T17:02:18;14.60;99.90
5200;DHT22;2619;47.868;11.892;2022-10-16T17:04:44;14.60;99.90
5200;DHT22;2619;47.868;11.892;2022-10-16T17:07:09;14.60;99.90
5200;DHT22;2619;47.868;11.892;2022-10-16T17:09:35;14.60;99.90
5200;DHT22;2619;47.868;11.892;2022-10-16T17:12:00;14.40;99.90
5200;DHT22;2619;47.868;11.892;2022-10-16T17:14:26;14.30;99.90
5200;DHT22;2619;47.868;11.892;2022-10-16T17:16:52;14.20;99.90
5200;DHT22;2619;47.868;11.892;2022-10-16T17:19:19;14.20;99.90
5200;DHT22;2619;47.868;11.892;2022-10-16T17:21:46;14.20;99.90
5200;DHT22;2619;47.868;11.892;2022-10-16T17:24:12;14.10;99.90
5200;DHT22;2619;47.868;11.892;2022-10-16T17:26:38;14.00;99.90
5200;DHT22;2619;47.868;11.892;2022-10-16T17:29:06;14.00;99.90
5200;DHT22;2619;47.868;11.892;2022-10-16T17:31:35;13.90;99.90
5200;DHT22;2619;47.868;11.892;2022-10-16T17:34:04;13.90;99.90
5200;DHT22;2619;47.868;11.892;2022-10-16T17:36:32;13.90;99.90
5200;DHT22;2619;47.868;11.892;2022-10-16T17:39:04;13.80;99.90
5200;DHT22;2619;47.868;11.892;2022-10-16T17:41:34;13.80;99.90
5200;DHT22;2619;47.868;11.892;2022-10-16T17:44:01;13.70;99.90
5200;DHT22;2619;47.868;11.892;2022-10-16T17:46:27;13.60;99.90
5200;DHT22;2619;47.868;11.892;2022-10-16T17:48:54;13.50;99.90
5200;DHT22;2619;47.868;11.892;2022-10-16T17:51:22;13.40;99.90
5200;DHT22;2619;47.868;11.892;2022-10-16T17:53:53;13.40;99.90